Time;durP1;ratioP1;P1;durP2;ratioP2;P2;SDS_P1;SDS_P2;PMS_P1;PMS_P2;Temp;Humidity;BMP_temperature;BMP_pressure;BME280_temperature;BME280_humidity;BME280_pressure;Samples;Min_cycle;Max_cycle;Signal;HPM_P1;HPM_P2
2024/04/12 00:01:04;;;;;;;96.65;10.48;;;;;;;7.75;100.00;99506.53;5327544;26;20534;-64
2024/04/12 00:03:31;;;;;;;61.00;8.32;;;;;;;7.67;100.00;99498.50;5330504;26;20015;-67
2024/04/12 00:06:00;;;;;;;56.10;8.57;;;;;;;8.00;100.00;99496.94;5335599;26;20016;-66
2024/04/12 00:08:28;;;;;;;92.70;10.07;;;;;;;7.85;100.00;99497.34;5330527;26;20035;-64
2024/04/12 00:10:56;;;;;;;87.18;9.60;;;;;;;8.09;100.00;99496.34;5328540;26;20019;-63
2024/04/12 00:13:22;;;;;;;79.50;9.13;;;;;;;8.05;100.00;99497.06;5330917;26;20022;-68
2024/04/12 00:15:47;;;;;;;63.13;8.75;;;;;;;7.88;100.00;99496.56;5354864;26;20731;-65
2024/04/12 00:18:13;;;;;;;83.43;9.60;;;;;;;8.10;100.00;99497.22;5332977;26;20202;-63
2024/04/12 00:20:38;;;;;;;56.47;8.15;;;;;;;8.05;100.00;99491.88;5318607;26;20011;-64
2024/04/12 00:23:04;;;;;;;72.70;8.52;;;;;;;8.04;100.00;99488.44;5326237;26;20005;-68
2024/04/12 00:25:29;;;;;;;45.42;7.05;;;;;;;7.94;100.00;99487.25;5331128;26;20008;-64
2024/04/12 00:27:55;;;;;;;64.97;8.13;;;;;;;7.82;100.00;99490.34;5327550;26;20566;-63
2024/04/12 00:30:37;;;;;;;78.00;9.52;;;;;;;8.04;100.00;99484.94;5332818;26;20008;-65
2024/04/12 00:33:09;;;;;;;59.90;7.38;;;;;;;7.95;100.00;99481.25;5332324;26;20019;-66
2024/04/12 00:35:38;;;;;;;62.95;7.72;;;;;;;7.84;100.00;99481.75;5332656;26;20095;-64
2024/04/12 00:38:09;;;;;;;59.63;8.80;;;;;;;7.96;100.00;99484.72;5328973;26;20921;-66
2024/04/12 00:40:36;;;;;;;67.70;8.57;;;;;;;7.83;100.00;99483.44;5335970;26;20012;-67
2024/04/12 00:43:11;;;;;;;61.60;8.10;;;;;;;7.87;100.00;99487.03;5330895;26;20046;-63
2024/04/12 00:45:48;;;;;;;48.80;7.82;;;;;;;7.84;100.00;99487.81;5330209;26;20013;-63
2024/04/12 00:48:21;;;;;;;95.82;10.45;;;;;;;7.72;100.00;99496.06;5330966;26;20551;-67
2024/04/12 00:50:47;;;;;;;;;;;;;;;7.69;100.00;99494.25;5330386;26;20001;-66
2024/04/12 00:53:13;;;;;;;83.22;9.38;;;;;;;7.56;100.00;99497.25;5330983;26;19961;-66
2024/04/12 00:55:40;;;;;;;53.67;7.95;;;;;;;7.47;100.00;99491.78;5335022;26;20068;-67
2024/04/12 00:58:11;;;;;;;74.97;8.95;;;;;;;7.31;100.00;99499.03;5333230;26;20025;-64
2024/04/12 01:00:37;;;;;;;72.32;10.73;;;;;;;7.13;100.00;99492.38;5330163;26;20016;-63
2024/04/12 01:03:06;;;;;;;64.20;8.48;;;;;;;7.25;100.00;99488.47;5329943;26;19996;-65
2024/04/12 01:05:32;;;;;;;48.85;7.18;;;;;;;7.20;100.00;99490.03;5332484;26;20595;-64
2024/04/12 01:08:00;;;;;;;60.42;8.27;;;;;;;7.32;100.00;99485.28;5337232;26;20004;-65
2024/04/12 01:10:26;;;;;;;80.15;11.73;;;;;;;7.41;100.00;99483.00;5337992;26;20074;-64
2024/04/12 01:12:56;;;;;;;56.67;7.97;;;;;;;7.13;100.00;99487.22;5333173;26;20012;-65
2024/04/12 01:15:23;;;;;;;78.40;9.65;;;;;;;7.49;100.00;99487.53;5334011;26;19997;-67
2024/04/12 01:17:49;;;;;;;62.75;8.40;;;;;;;7.37;100.00;99477.66;5332503;26;20012;-66
2024/04/12 01:20:16;;;;;;;103.97;10.40;;;;;;;7.46;100.00;99477.94;5336847;26;19996;-65
2024/04/12 01:22:44;;;;;;;65.45;8.98;;;;;;;7.18;100.00;99477.03;5333352;26;20487;-63
2024/04/12 01:25:10;;;;;;;72.13;9.02;;;;;;;7.19;100.00;99477.91;5334236;26;21325;-67
2024/04/12 01:27:38;;;;;;;72.82;9.50;;;;;;;7.11;100.00;99481.13;5333246;26;20044;-67
2024/04/12 01:30:04;;;;;;;59.30;7.88;;;;;;;7.38;100.00;99472.53;5336721;26;20008;-65
2024/04/12 01:32:30;;;;;;;67.53;8.77;;;;;;;7.16;100.00;99471.78;5367023;26;20006;-64
2024/04/12 01:34:55;;;;;;;63.15;9.13;;;;;;;7.06;100.00;99474.00;5371574;26;20070;-65
2024/04/12 01:37:21;;;;;;;90.72;10.38;;;;;;;6.76;100.00;99465.25;5338946;26;19997;-66
2024/04/12 01:39:49;;;;;;;59.55;8.15;;;;;;;6.81;100.00;99471.44;5334324;26;20063;-64
2024/04/12 01:42:16;;;;;;;93.05;11.52;;;;;;;6.57;100.00;99461.09;5327729;26;20019;-63
2024/04/12 01:45:13;;;;;;;65.40;9.25;;;;;;;6.46;100.00;99464.16;5334211;26;20007;-64
2024/04/12 01:47:34;;;;;;;84.10;10.18;;;;;;;6.58;100.00;99463.75;5334090;26;20005;-63
2024/04/12 01:50:01;;;;;;;58.65;8.77;;;;;;;6.46;100.00;99469.31;5332282;26;20756;-63
2024/04/12 01:52:27;;;;;;;96.22;10.38;;;;;;;6.50;100.00;99465.16;5326917;26;20852;-65
2024/04/12 01:55:18;;;;;;;65.07;9.05;;;;;;;6.57;100.00;99467.13;5333628;26;20829;-66
2024/04/12 01:57:41;;;;;;;63.30;8.88;;;;;;;6.71;100.00;99470.22;5333729;26;20000;-67
2024/04/12 02:00:07;;;;;;;68.15;9.25;;;;;;;6.78;100.00;99473.91;5333751;26;19996;-63
2024/04/12 02:02:32;;;;;;;56.50;8.73;;;;;;;6.75;100.00;99472.09;5330935;26;20039;-66
2024/04/12 02:04:58;;;;;;;58.72;8.07;;;;;;;7.00;100.00;99469.50;5335209;26;20024;-66
2024/04/12 02:07:39;;;;;;;88.10;10.15;;;;;;;6.60;100.00;99474.13;5329742;26;20006;-65
2024/04/12 02:10:08;;;;;;;64.78;8.57;;;;;;;6.57;100.00;99466.28;5335527;26;20001;-64
2024/04/12 02:12:37;;;;;;;70.55;9.02;;;;;;;6.44;100.00;99463.22;5331875;26;20111;-66
2024/04/12 02:15:19;;;;;;;57.30;7.72;;;;;;;6.71;100.00;99454.72;5335151;26;20015;-65
2024/04/12 02:17:57;;;;;;;79.47;10.00;;;;;;;6.66;100.00;99456.25;5369478;26;20071;-67
2024/04/12 02:20:36;;;;;;;87.82;10.23;;;;;;;6.32;100.00;99458.50;5358654;26;20008;-67
2024/04/12 02:23:05;;;;;;;63.92;8.40;;;;;;;6.48;100.00;99456.47;5332383;26;19997;-63
2024/04/12 02:25:39;;;;;;;79.65;10.27;;;;;;;6.79;100.00;99462.75;5335617;26;20020;-64
2024/04/12 02:28:09;;;;;;;66.20;9.60;;;;;;;6.45;100.00;99469.25;5336433;26;20008;-67
2024/04/12 02:30:41;;;;;;;58.38;8.30;;;;;;;6.28;100.00;99464.38;5334186;26;20115;-63
2024/04/12 02:33:12;;;;;;;75.88;9.45;;;;;;;6.49;100.00;99466.84;5332015;26;19996;-64
2024/04/12 02:35:43;;;;;;;63.85;8.27;;;;;;;6.25;100.00;99467.72;5329849;26;20475;-63
2024/04/12 02:38:16;;;;;;;59.00;8.37;;;;;;;6.16;100.00;99466.47;5335663;26;20005;-67
2024/04/12 02:40:45;;;;;;;75.00;8.70;;;;;;;6.34;100.00;99467.16;5332359;26;20005;-63
2024/04/12 02:43:15;;;;;;;77.88;9.63;;;;;;;6.31;100.00;99477.38;5332000;26;20001;-67
2024/04/12 02:45:48;;;;;;;71.05;9.75;;;;;;;6.22;100.00;99477.03;5334189;26;19997;-63
2024/04/12 02:48:13;;;;;;;62.13;9.75;;;;;;;6.17;100.00;99476.88;5332620;26;20964;-66
2024/04/12 02:50:39;;;;;;;59.35;8.45;;;;;;;6.28;100.00;99479.88;5330189;26;20001;-63
2024/04/12 02:53:05;;;;;;;87.70;9.77;;;;;;;6.20;100.00;99481.28;5331588;26;20629;-65
2024/04/12 02:55:30;;;;;;;80.07;11.90;;;;;;;6.24;100.00;99484.03;5333307;26;20008;-64
2024/04/12 02:57:57;;;;;;;48.08;7.28;;;;;;;6.10;100.00;99488.69;5330450;26;20004;-63
2024/04/12 03:00:23;;;;;;;93.35;10.73;;;;;;;6.09;100.00;99481.72;5333429;26;20012;-63
2024/04/12 03:02:50;;;;;;;69.07;9.93;;;;;;;6.16;100.00;99482.84;5331983;26;20016;-67
2024/04/12 03:05:15;;;;;;;81.63;9.88;;;;;;;6.02;100.00;99484.00;5329310;26;20847;-63
2024/04/12 03:07:41;;;;;;;80.28;9.65;;;;;;;6.06;100.00;99484.22;5319664;26;20037;-65
2024/04/12 03:10:07;;;;;;;73.70;9.98;;;;;;;5.96;100.00;99487.22;5332828;26;20809;-66
2024/04/12 03:12:32;;;;;;;85.97;9.93;;;;;;;5.77;100.00;99489.06;5333569;26;20464;-63
2024/04/12 03:15:02;;;;;;;73.47;9.32;;;;;;;5.80;100.00;99491.78;5330629;26;20023;-63
2024/04/12 03:17:27;;;;;;;81.40;9.55;;;;;;;5.81;100.00;99490.06;5333929;26;20890;-63
2024/04/12 03:19:54;;;;;;;67.90;8.55;;;;;;;5.72;100.00;99491.44;5334590;26;20082;-62
2024/04/12 03:22:20;;;;;;;98.30;10.45;;;;;;;5.72;100.00;99488.00;5326319;26;20001;-65
2024/04/12 03:24:46;;;;;;;75.13;9.45;;;;;;;5.93;100.00;99498.31;5333872;26;20005;-64
2024/04/12 03:27:13;;;;;;;82.10;9.63;;;;;;;5.84;100.00;99492.78;5327647;26;20099;-65
2024/04/12 03:29:38;;;;;;;72.00;9.40;;;;;;;6.07;100.00;99493.72;5330032;26;20522;-63
2024/04/12 03:32:07;;;;;;;65.90;8.65;;;;;;;5.85;100.00;99492.84;5333275;26;20000;-66
2024/04/12 03:34:36;;;;;;;89.28;9.82;;;;;;;5.82;100.00;99492.72;5333623;26;19997;-67
2024/04/12 03:37:23;;;;;;;75.95;10.20;;;;;;;5.93;100.00;99494.81;5329468;26;20076;-63
2024/04/12 03:39:47;;;;;;;67.20;9.43;;;;;;;6.06;100.00;99491.97;5333471;26;20015;-63
2024/04/12 03:42:18;;;;;;;85.72;9.38;;;;;;;6.35;100.00;99481.00;5328262;26;20944;-66
2024/04/12 03:44:43;;;;;;;62.22;8.07;;;;;;;6.57;100.00;99494.72;5334010;26;20019;-66
2024/04/12 03:47:09;;;;;;;67.75;8.68;;;;;;;6.27;100.00;99493.59;5331930;26;20075;-65
2024/04/12 03:49:39;;;;;;;103.82;12.43;;;;;;;6.10;100.00;99496.44;5328906;26;20031;-67
2024/04/12 03:52:11;;;;;;;50.00;7.80;;;;;;;5.93;100.00;99495.72;5330275;26;20097;-63
2024/04/12 03:54:37;;;;;;;70.97;8.27;;;;;;;5.95;100.00;99503.53;5331665;26;20040;-63
2024/04/12 03:57:06;;;;;;;84.45;9.95;;;;;;;5.85;100.00;99500.59;5330876;26;19997;-63
2024/04/12 03:59:34;;;;;;;80.90;9.75;;;;;;;5.62;100.00;99497.06;5331458;26;20001;-63
2024/04/12 04:02:06;;;;;;;70.68;9.27;;;;;;;5.58;100.00;99495.19;5330507;26;20005;-63
2024/04/12 04:04:37;;;;;;;78.93;9.68;;;;;;;5.57;100.00;99490.84;5330636;26;20102;-67
2024/04/12 04:07:03;;;;;;;67.85;8.55;;;;;;;5.54;100.00;99494.19;5332119;26;20000;-63
2024/04/12 04:09:29;;;;;;;92.22;9.68;;;;;;;5.75;100.00;99498.44;5330151;26;20012;-63
2024/04/12 04:11:55;;;;;;;61.70;9.02;;;;;;;5.73;100.00;99489.75;5327213;26;20759;-65
2024/04/12 04:14:32;;;;;;;73.30;9.43;;;;;;;5.92;100.00;99490.50;5331100;26;20811;-66
2024/04/12 04:17:01;;;;;;;69.97;9.25;;;;;;;6.08;100.00;99492.88;5329308;26;20017;-66
2024/04/12 04:19:31;;;;;;;83.28;10.07;;;;;;;6.11;100.00;99490.44;5331699;26;20005;-66
2024/04/12 04:22:21;;;;;;;81.32;10.52;;;;;;;6.06;100.00;99486.81;5326421;26;20568;-65
2024/04/12 04:24:48;;;;;;;66.93;9.02;;;;;;;6.07;100.00;99488.56;5331589;26;20012;-65
2024/04/12 04:27:15;;;;;;;88.10;10.43;;;;;;;6.05;100.00;99492.75;5331896;26;19996;-65
2024/04/12 04:29:43;;;;;;;62.95;8.30;;;;;;;6.01;100.00;99496.00;5332501;26;19997;-63
2024/04/12 04:32:10;;;;;;;75.10;8.77;;;;;;;6.19;100.00;99492.41;5329907;26;20087;-63
2024/04/12 04:34:35;;;;;;;84.75;9.95;;;;;;;6.31;100.00;99498.06;5329785;26;20454;-66
2024/04/12 04:37:01;;;;;;;54.92;8.65;;;;;;;6.38;100.00;99502.66;5332044;26;20524;-66
2024/04/12 04:39:29;;;;;;;91.95;10.65;;;;;;;6.27;100.00;99498.75;5331043;26;20023;-64
2024/04/12 04:41:54;;;;;;;68.18;10.43;;;;;;;6.35;100.00;99505.09;5329472;26;20893;-63
2024/04/12 04:44:21;;;;;;;69.57;9.10;;;;;;;6.73;100.00;99502.22;5330829;26;20012;-66
2024/04/12 04:46:50;;;;;;;64.20;9.07;;;;;;;6.68;100.00;99498.56;5331927;26;20000;-63
2024/04/12 04:49:18;;;;;;;85.75;10.68;;;;;;;6.50;100.00;99506.53;5330217;26;20001;-63
2024/04/12 04:51:45;;;;;;;59.50;9.13;;;;;;;6.64;100.00;99502.75;5326777;26;20001;-67
2024/04/12 04:54:11;;;;;;;66.15;9.05;;;;;;;7.15;100.00;99503.69;5330616;26;20008;-65
2024/04/12 04:56:41;;;;;;;84.45;10.55;;;;;;;7.36;100.00;99506.94;5326370;26;20013;-64
2024/04/12 04:59:16;;;;;;;62.10;9.05;;;;;;;7.31;100.00;99508.50;5330764;26;20011;-63
2024/04/12 05:01:48;;;;;;;68.43;8.75;;;;;;;7.71;100.00;99509.84;5330983;26;20014;-67
2024/04/12 05:04:15;;;;;;;;;;;;;;;8.08;100.00;99505.84;5336432;26;20014;-63
2024/04/12 05:06:41;;;;;;;58.92;7.80;;;;;;;8.50;100.00;99511.38;5331721;26;19948;-67
2024/04/12 05:09:09;;;;;;;59.42;8.35;;;;;;;9.03;100.00;99514.63;5329240;26;20868;-65
2024/04/12 05:11:38;;;;;;;77.97;9.68;;;;;;;9.96;100.00;99510.91;5326021;26;20056;-63
2024/04/12 05:14:13;;;;;;;76.20;10.00;;;;;;;10.12;100.00;99506.94;5332115;26;20465;-63
2024/04/12 05:16:42;;;;;;;70.97;9.25;;;;;;;10.47;100.00;99508.63;5328071;26;20071;-66
2024/04/12 05:19:12;;;;;;;59.72;9.25;;;;;;;10.28;100.00;99518.56;5332411;26;20000;-63
2024/04/12 05:21:41;;;;;;;91.18;9.68;;;;;;;10.11;100.00;99521.69;5329430;26;20001;-65
2024/04/12 05:24:10;;;;;;;58.08;8.40;;;;;;;11.66;100.00;99523.00;5330712;26;20009;-64
2024/04/12 05:26:42;;;;;;;84.20;10.13;;;;;;;12.16;100.00;99509.91;5330583;26;20041;-64
2024/04/12 05:29:11;;;;;;;59.92;8.45;;;;;;;11.51;100.00;99514.94;5329992;26;20000;-68
2024/04/12 05:31:43;;;;;;;63.95;9.00;;;;;;;12.26;100.00;99516.13;5325063;26;20400;-65
2024/04/12 05:34:11;;;;;;;57.70;8.73;;;;;;;12.27;100.00;99512.66;5331535;26;20041;-64
2024/04/12 05:36:41;;;;;;;76.75;9.90;;;;;;;13.48;100.00;99516.72;5327720;26;20050;-68
2024/04/12 05:39:11;;;;;;;64.25;9.38;;;;;;;12.98;100.00;99510.97;5332233;26;20016;-65
2024/04/12 05:41:44;;;;;;;67.97;10.15;;;;;;;13.19;100.00;99513.81;5326722;26;20016;-64
2024/04/12 05:44:10;;;;;;;65.53;8.75;;;;;;;14.26;100.00;99513.84;5330818;26;20046;-68
2024/04/12 05:46:39;;;;;;;83.10;11.13;;;;;;;14.85;100.00;99506.31;5331002;26;20295;-64
2024/04/12 05:49:09;;;;;;;51.30;8.50;;;;;;;14.86;100.00;99501.94;5331004;26;20469;-64
2024/04/12 05:51:43;;;;;;;73.00;10.70;;;;;;;14.27;100.00;99492.94;5329152;26;20074;-68
2024/04/12 05:54:15;;;;;;;48.67;8.52;;;;;;;13.94;100.00;99502.28;5335168;26;20012;-68
2024/04/12 05:56:51;;;;;;;48.92;8.45;;;;;;;11.78;100.00;99509.31;5329967;26;20075;-66
2024/04/12 05:59:17;;;;;;;65.97;9.38;;;;;;;12.57;100.00;99503.50;5332897;26;20555;-65
2024/04/12 06:01:45;;;;;;;54.00;9.18;;;;;;;13.91;100.00;99495.31;5329813;26;20044;-66
2024/04/12 06:04:18;;;;;;;54.78;9.68;;;;;;;13.45;100.00;99498.38;5337214;26;19997;-66
2024/04/12 06:06:44;;;;;;;38.80;8.23;;;;;;;13.64;100.00;99489.00;5330878;26;20019;-66
2024/04/12 06:09:20;;;;;;;62.03;9.80;;;;;;;14.73;100.00;99490.53;5332013;26;20357;-67
2024/04/12 06:11:54;;;;;;;58.10;10.02;;;;;;;14.45;100.00;99492.13;5329880;26;20488;-68
2024/04/12 06:14:21;;;;;;;49.72;9.40;;;;;;;15.17;100.00;99478.44;5332130;26;20004;-68
2024/04/12 06:16:55;;;;;;;53.08;9.13;;;;;;;14.43;100.00;99478.16;5331053;26;20004;-69
2024/04/12 06:19:21;;;;;;;57.20;10.18;;;;;;;15.74;100.00;99473.22;5333802;26;20015;-68
2024/04/12 06:21:46;;;;;;;54.90;8.93;;;;;;;15.54;99.82;99474.97;5334307;26;20665;-67
2024/04/12 06:24:16;;;;;;;63.03;10.18;;;;;;;16.99;86.09;99475.50;5330522;26;20107;-66
2024/04/12 06:26:47;;;;;;;66.65;10.27;;;;;;;18.09;74.37;99483.47;5334584;26;20015;-69
2024/04/12 06:29:16;;;;;;;52.60;8.65;;;;;;;17.12;81.56;99478.09;5333271;26;20005;-68
2024/04/12 06:31:44;;;;;;;65.85;9.05;;;;;;;17.15;83.23;99472.81;5327993;26;20017;-65
2024/04/12 06:34:12;;;;;;;47.03;8.25;;;;;;;18.77;74.15;99473.03;5303548;26;20082;-67
2024/04/12 06:36:45;;;;;;;61.33;9.73;;;;;;;20.53;60.89;99464.88;5330680;26;20042;-67
2024/04/12 06:39:11;;;;;;;51.05;8.45;;;;;;;20.09;56.04;99472.78;5332598;26;20015;-66
2024/04/12 06:41:37;;;;;;;55.20;8.82;;;;;;;19.17;60.79;99476.88;5331404;26;20074;-66
2024/04/12 06:44:05;;;;;;;55.58;8.50;;;;;;;18.95;61.81;99479.81;5335152;26;20434;-66
2024/04/12 06:46:32;;;;;;;45.55;8.20;;;;;;;21.77;52.19;99469.16;5358868;26;20001;-66
2024/04/12 06:49:07;;;;;;;37.80;7.45;;;;;;;24.78;43.77;99478.31;5332470;26;20012;-67
2024/04/12 06:52:02;;;;;;;48.53;8.57;;;;;;;25.78;40.26;99468.19;5331056;26;20008;-69
2024/04/12 06:54:25;;;;;;;37.20;7.65;;;;;;;26.37;38.82;99470.97;5334308;26;21509;-68
2024/04/12 06:56:51;;;;;;;30.77;6.97;;;;;;;24.90;39.32;99484.97;5335190;26;20692;-69
2024/04/12 06:59:18;;;;;;;33.28;7.05;;;;;;;21.61;44.54;99483.66;5330859;26;20001;-68
2024/04/12 07:01:44;;;;;;;55.05;8.98;;;;;;;23.12;42.61;99482.19;5327122;26;20016;-68
2024/04/12 07:04:10;;;;;;;39.65;7.30;;;;;;;22.10;44.50;99489.47;5334501;26;20551;-69
2024/04/12 07:06:36;;;;;;;45.13;7.90;;;;;;;21.56;45.13;99487.28;5333484;26;20001;-66
2024/04/12 07:09:08;;;;;;;36.00;7.70;;;;;;;23.13;43.09;99486.56;5328447;26;20012;-68
2024/04/12 07:11:39;;;;;;;52.45;9.77;;;;;;;24.65;41.03;99482.38;5330288;26;20001;-68
2024/04/12 07:14:07;;;;;;;29.93;7.03;;;;;;;25.31;38.26;99483.41;5334116;26;19997;-67
2024/04/12 07:16:35;;;;;;;49.83;8.88;;;;;;;27.24;36.87;99469.63;5332572;26;20736;-66
2024/04/12 07:19:05;;;;;;;32.10;7.13;;;;;;;28.30;33.77;99477.72;5335891;26;20818;-67
2024/04/12 07:21:35;;;;;;;34.45;8.00;;;;;;;27.41;34.22;99492.84;5329468;26;20005;-69
2024/04/12 07:24:01;;;;;;;29.08;7.50;;;;;;;27.97;34.94;99493.69;5332482;26;20763;-67
2024/04/12 07:26:29;;;;;;;31.25;7.78;;;;;;;29.05;33.49;99497.78;5333380;26;20011;-67
2024/04/12 07:29:01;;;;;;;32.15;7.75;;;;;;;29.28;33.21;99492.91;5332973;26;20552;-68
2024/04/12 07:31:30;;;;;;;26.33;7.35;;;;;;;29.64;32.44;99498.09;5331272;26;20052;-69
2024/04/12 07:33:59;;;;;;;30.48;8.25;;;;;;;29.93;31.60;99493.66;5334814;26;20004;-68
2024/04/12 07:36:30;;;;;;;33.70;8.48;;;;;;;27.62;34.12;99506.13;5333510;26;20001;-67
2024/04/12 07:39:01;;;;;;;24.77;6.95;;;;;;;27.22;35.15;99498.22;5331601;26;20009;-67
2024/04/12 07:41:33;;;;;;;37.63;8.50;;;;;;;26.93;34.63;99497.78;5327486;26;20047;-68
2024/04/12 07:43:58;;;;;;;;;;;;;;;27.26;35.29;99505.16;5335642;26;20008;-67
2024/04/12 07:46:27;;;;;;;28.30;7.32;;;;;;;28.48;34.05;99506.22;5335090;26;19973;-67
2024/04/12 07:48:57;;;;;;;34.22;8.15;;;;;;;29.71;31.75;99489.59;5331484;26;19996;-69
2024/04/12 07:51:28;;;;;;;36.40;7.78;;;;;;;29.16;32.18;99497.16;5329050;26;21862;-69
2024/04/12 07:53:53;;;;;;;25.13;7.85;;;;;;;29.42;33.06;99500.16;5332651;26;20056;-69
2024/04/12 07:56:21;;;;;;;29.23;7.90;;;;;;;29.44;32.60;99500.09;5329272;26;20005;-70
2024/04/12 07:59:01;;;;;;;37.95;8.20;;;;;;;28.87;33.04;99498.78;5331718;26;20096;-69
2024/04/12 08:01:26;;;;;;;29.95;7.57;;;;;;;29.80;31.51;99487.31;5326494;26;20043;-69
2024/04/12 08:04:05;;;;;;;29.15;7.57;;;;;;;31.68;30.07;99488.13;5335282;26;20015;-70
2024/04/12 08:06:36;;;;;;;34.10;7.97;;;;;;;32.72;28.29;99493.56;5330796;26;20000;-67
2024/04/12 08:09:06;;;;;;;28.45;7.07;;;;;;;30.92;29.19;99486.72;5328613;26;20254;-70
2024/04/12 08:11:34;;;;;;;34.55;7.82;;;;;;;33.16;27.19;99485.06;5326579;26;20005;-69
2024/04/12 08:14:06;;;;;;;31.30;7.63;;;;;;;33.08;27.44;99478.41;5331592;26;20051;-69
2024/04/12 08:16:46;;;;;;;28.77;7.38;;;;;;;33.58;27.10;99474.72;5331344;26;20832;-69
2024/04/12 08:19:15;;;;;;;36.25;8.77;;;;;;;31.95;28.48;99476.47;5332134;26;20673;-69
2024/04/12 08:21:41;;;;;;;43.72;9.07;;;;;;;33.74;26.54;99465.47;5329901;26;20011;-69
2024/04/12 08:24:09;;;;;;;32.83;8.15;;;;;;;36.08;24.15;99466.41;5334873;26;20023;-68
2024/04/12 08:26:34;;;;;;;37.28;8.80;;;;;;;35.65;25.32;99467.41;5334790;26;20004;-68
2024/04/12 08:29:00;;;;;;;28.47;7.73;;;;;;;34.46;26.10;99460.78;5335213;26;20816;-68
2024/04/12 08:31:25;;;;;;;29.25;7.55;;;;;;;35.97;25.68;99463.81;5324960;26;20232;-68
2024/04/12 08:33:53;;;;;;;28.67;7.95;;;;;;;35.02;26.03;99459.03;5327147;26;20018;-68
2024/04/12 08:36:18;;;;;;;24.45;6.93;;;;;;;34.12;26.45;99477.84;5328995;26;20120;-70
2024/04/12 08:39:11;;;;;;;36.45;8.38;;;;;;;34.91;25.27;99468.03;5327899;26;20008;-68
2024/04/12 08:41:37;;;;;;;30.65;7.50;;;;;;;36.84;24.23;99458.06;5335989;26;20014;-69
2024/04/12 08:44:09;;;;;;;30.00;7.32;;;;;;;36.51;24.38;99462.81;5331012;26;20001;-68
2024/04/12 08:46:36;;;;;;;32.88;7.53;;;;;;;36.39;24.94;99457.47;5355362;26;20554;-67
2024/04/12 08:49:03;;;;;;;27.40;6.90;;;;;;;35.74;25.86;99454.97;5333151;26;20827;-67
2024/04/12 08:51:32;;;;;;;34.45;7.18;;;;;;;34.10;25.93;99452.81;5327416;26;20001;-70
2024/04/12 08:54:03;;;;;;;28.27;7.13;;;;;;;35.99;24.67;99450.13;5331320;26;20016;-69
2024/04/12 08:56:29;;;;;;;27.20;6.70;;;;;;;33.17;28.04;99452.59;5329941;26;20016;-69
2024/04/12 08:59:05;;;;;;;37.30;8.00;;;;;;;35.87;26.08;99446.63;5330148;26;20060;-68
2024/04/12 09:01:31;;;;;;;28.55;7.40;;;;;;;35.24;25.53;99441.03;5326291;26;20656;-70
2024/04/12 09:04:04;;;;;;;34.25;7.72;;;;;;;36.07;24.58;99450.31;5324477;26;20013;-68
2024/04/12 09:06:35;;;;;;;25.38;6.90;;;;;;;37.04;23.97;99445.41;5330988;26;20829;-69
2024/04/12 09:09:02;;;;;;;32.22;7.47;;;;;;;36.17;24.31;99439.53;5327990;26;20019;-68
2024/04/12 09:11:31;;;;;;;36.40;8.07;;;;;;;36.77;24.24;99443.38;5328709;26;19997;-69
2024/04/12 09:13:56;;;;;;;25.85;6.70;;;;;;;36.40;24.71;99444.78;5326975;26;20032;-69
2024/04/12 09:16:23;;;;;;;36.13;7.47;;;;;;;33.91;26.23;99439.03;5328185;26;20019;-69
2024/04/12 09:18:51;;;;;;;43.38;7.95;;;;;;;34.85;26.20;99438.81;5328622;26;20346;-68
2024/04/12 09:21:36;;;;;;;35.92;7.45;;;;;;;33.80;26.12;99450.66;5329788;26;19997;-68
2024/04/12 09:24:09;;;;;;;30.27;6.97;;;;;;;34.32;26.10;99451.09;5330067;26;20000;-68
2024/04/12 09:26:55;;;;;;;25.60;6.43;;;;;;;33.48;26.64;99454.81;5328154;26;20490;-68
2024/04/12 09:29:26;;;;;;;32.33;7.28;;;;;;;34.56;25.91;99452.81;5335938;26;20062;-70
2024/04/12 09:34:39;;;;;;;24.30;6.28;;;;;;;31.81;26.94;99445.97;5329814;26;20015;-68
2024/04/12 09:45:20;;;;;;;32.72;7.35;;;;;;;34.57;25.24;99445.56;5335000;26;20016;-69
2024/04/12 10:37:44;;;;;;;66.72;10.52;;;;;;;30.40;29.87;99391.59;5333900;26;20566;-68
2024/04/12 10:40:10;;;;;;;59.03;9.68;;;;;;;32.25;28.45;99396.38;5330830;26;20045;-67
2024/04/12 10:42:37;;;;;;;41.25;7.43;;;;;;;30.78;29.47;99390.09;5326373;26;20045;-69
2024/04/12 10:45:07;;;;;;;44.90;8.63;;;;;;;30.77;29.59;99385.69;5334054;26;20000;-69
2024/04/12 10:47:37;;;;;;;44.83;8.77;;;;;;;28.84;31.14;99374.00;5333468;26;20001;-69
2024/04/12 10:50:07;;;;;;;42.38;7.78;;;;;;;29.72;31.48;99370.66;5333923;26;20038;-68
2024/04/12 10:52:32;;;;;;;45.97;8.88;;;;;;;29.77;31.94;99375.75;5329727;26;20513;-69
2024/04/12 10:55:09;;;;;;;52.78;9.45;;;;;;;29.74;30.16;99368.78;5331109;26;20808;-68
2024/04/12 10:57:40;;;;;;;44.40;8.48;;;;;;;27.87;32.47;99371.19;5367111;26;20030;-67
2024/04/12 11:00:14;;;;;;;;;;;;;;;28.77;31.90;99372.59;5367563;26;20000;-67
2024/04/12 11:02:54;;;;;;;41.75;8.45;;;;;;;28.82;33.16;99370.53;5329366;26;19933;-68
2024/04/12 11:07:54;;;;;;;65.38;9.77;;;;;;;28.73;33.12;99355.88;5327040;26;20822;-69
2024/04/12 11:10:39;;;;;;;63.88;10.15;;;;;;;27.39;33.00;99355.81;5336491;26;20012;-67
2024/04/12 11:13:11;;;;;;;57.45;9.05;;;;;;;27.56;33.21;99346.06;5331737;26;20019;-69
2024/04/12 11:31:53;;;;;;;78.30;10.57;;;;;;;27.38;32.76;99343.41;5327303;26;20015;-68
2024/04/12 11:34:20;;;;;;;56.28;8.93;;;;;;;27.06;33.01;99340.56;5331300;26;20008;-68
2024/04/12 11:36:45;;;;;;;74.18;10.02;;;;;;;25.28;34.15;99335.28;5332982;26;21075;-68
2024/04/12 11:39:17;;;;;;;62.40;9.52;;;;;;;25.72;35.28;99339.63;5333282;26;20060;-67
2024/04/12 11:41:46;;;;;;;66.22;9.68;;;;;;;25.87;35.26;99331.88;5328215;26;20063;-68
2024/04/12 11:44:17;;;;;;;61.90;9.30;;;;;;;25.89;35.91;99337.13;5333642;26;20345;-69
2024/04/12 11:46:46;;;;;;;53.63;8.95;;;;;;;25.80;36.49;99331.31;5328697;26;20000;-68
2024/04/12 11:49:13;;;;;;;71.03;9.25;;;;;;;26.93;34.30;99316.25;5328117;26;20434;-67
2024/04/12 11:51:41;;;;;;;45.15;8.27;;;;;;;25.13;35.27;99317.31;5331004;26;20069;-67
2024/04/12 11:54:07;;;;;;;53.70;8.35;;;;;;;25.15;35.76;99310.09;5327382;26;20032;-69
2024/04/12 11:56:34;;;;;;;54.75;9.25;;;;;;;25.49;34.71;99300.66;5360578;26;20016;-68
2024/04/12 11:59:00;;;;;;;91.03;16.95;;;;;;;24.97;35.89;99294.00;5329485;26;20035;-68
2024/04/12 12:01:28;;;;;;;48.70;8.43;;;;;;;25.50;35.85;99294.41;5358232;26;20561;-69
2024/04/12 12:03:56;;;;;;;85.35;10.75;;;;;;;25.33;36.07;99290.69;5328620;26;20012;-68
2024/04/12 12:06:22;;;;;;;63.40;8.90;;;;;;;25.95;35.34;99280.91;5331835;26;20004;-68
2024/04/12 12:08:57;;;;;;;92.03;11.55;;;;;;;25.84;35.13;99284.91;5331929;26;20087;-68
2024/04/12 12:11:27;;;;;;;61.72;9.13;;;;;;;25.40;35.20;99274.44;5331479;26;20041;-68
2024/04/12 12:13:53;;;;;;;86.18;11.27;;;;;;;25.24;33.99;99279.56;5333341;26;20001;-68
2024/04/12 12:16:19;;;;;;;71.30;9.10;;;;;;;25.78;34.08;99277.19;5334622;26;20074;-67
2024/04/12 12:18:44;;;;;;;56.80;9.10;;;;;;;25.40;34.28;99267.31;5332035;26;20587;-69
2024/04/12 12:21:11;;;;;;;82.75;9.93;;;;;;;25.27;34.35;99272.31;5328262;26;20029;-67
2024/04/12 12:23:37;;;;;;;60.70;8.98;;;;;;;24.73;34.53;99274.56;5332490;26;20147;-68
2024/04/12 12:26:02;;;;;;;90.78;11.07;;;;;;;25.15;34.53;99264.84;5328821;26;20957;-67
2024/04/12 12:28:28;;;;;;;48.22;7.72;;;;;;;25.30;35.27;99258.00;5331650;26;20848;-67
2024/04/12 12:30:57;;;;;;;119.95;13.57;;;;;;;25.63;35.77;99259.25;5324489;26;20008;-68
2024/04/12 12:33:23;;;;;;;58.15;8.65;;;;;;;25.25;34.73;99262.66;5334234;26;20001;-69
2024/04/12 12:35:50;;;;;;;65.72;9.07;;;;;;;25.18;34.00;99264.72;5327189;26;20016;-67
2024/04/12 12:38:16;;;;;;;71.80;9.68;;;;;;;24.73;34.49;99267.47;5327887;26;20067;-69
2024/04/12 12:40:41;;;;;;;47.40;7.47;;;;;;;24.30;33.17;99268.28;5330792;26;20004;-69
2024/04/12 12:43:10;;;;;;;67.07;9.02;;;;;;;24.42;34.38;99268.72;5324978;26;20001;-67
2024/04/12 12:45:36;;;;;;;70.03;9.80;;;;;;;24.78;34.92;99260.16;5329596;26;20013;-67
2024/04/12 12:48:02;;;;;;;91.80;11.07;;;;;;;25.48;34.31;99256.31;5331697;26;20060;-66
2024/04/12 12:50:29;;;;;;;53.20;7.65;;;;;;;25.04;34.75;99258.22;5328780;26;20356;-69
2024/04/12 12:52:55;;;;;;;98.38;11.38;;;;;;;25.50;34.37;99254.47;5327821;26;20764;-67